KGCC

Gillette-Campbell County Airport

Gillette, Wyoming, USA
METAR KGCC 150253Z AUTO 15010KT 10SM SCT110 14/11 A3007 RMK AO2 LTG DSNT W SLP156 60081 T01390111 51023 $
Observed Flight Rules
Aug-15 @ 02:53 UTC (44 minutes ago) Visual Flight Rules
Wind Visibility Clouds
150° at 10 knots 10 miles
  • Scattered at 11,000' AGL
Temperatures Readings
Current 14°C / 57°F
Dewpoint 11°C / 52°F
Humidity 82%
Altimeter 30.07" Hg
Pressure 1015.6 hPa
Elevation 1320
METAR KGCC 150253Z AUTO 15010KT 10SM SCT110 14/11 A3007 RMK AO2 LTG DSNT W SLP156 60081 T01390111 51023 $
Observed Flight Rules
Aug-15 @ 02:53 UTC
(44 minutes ago)
VFR
Wind Visibility
150° at 10 knots 10 miles
Clouds
  • Scattered at 11,000' AGL
Temperature Dewpoint
14°C / 57°F 11°C / 52°F
Humidity Altimeter Pressure
82% 30.07" Hg 1015.6 hPa